Mayville, North Dakota
Current Conditions -  °F | °C
As of 5:53 PM on Saturday 25 Oct 2014 (Local Time) from KGFK Reporting Station
Clear Clear  
Wind Chill: 56°   Ceiling: Unl
Heat Index: 56°   Visibility: 10mi
Dew Point: 27°   Wind: 5mph
Humidity: 33%   Direction: 290°WNW
Pressure: 30.03"   Gusts: NA
Location:  47.5°N, 97.32°W
Report Text: KGFK 252253Z 29004KT 10SM CLR 13/M03 A3003 RMK AO2 SLP176 T01331028
Loading
Personal Weather Stations






























Interactive Weather Map
Tropical Storm Tracking
New forecast layout! Learn more

10-Day Weather Forecast

Advertisements
Track Severe Weather on mobile